sensor_id;sensor_type;location;lat;lon;timestamp;P1;durP1;ratioP1;P2;durP2;ratioP2
11699;SDS011;5906;51.660;6.674;2022-12-05T00:01:11;39.17;;;19.80;;
11699;SDS011;5906;51.660;6.674;2022-12-05T00:04:28;43.30;;;21.70;;
11699;SDS011;5906;51.660;6.674;2022-12-05T00:07:15;39.20;;;20.37;;
11699;SDS011;5906;51.660;6.674;2022-12-05T00:10:03;40.13;;;21.67;;
11699;SDS011;5906;51.660;6.674;2022-12-05T00:12:51;44.10;;;21.90;;
11699;SDS011;5906;51.660;6.674;2022-12-05T00:15:39;37.70;;;20.47;;
11699;SDS011;5906;51.660;6.674;2022-12-05T00:18:26;37.50;;;21.90;;
11699;SDS011;5906;51.660;6.674;2022-12-05T00:21:17;45.77;;;22.40;;
11699;SDS011;5906;51.660;6.674;2022-12-05T00:24:14;42.30;;;22.03;;
11699;SDS011;5906;51.660;6.674;2022-12-05T00:27:01;46.93;;;22.67;;
11699;SDS011;5906;51.660;6.674;2022-12-05T00:29:49;38.27;;;22.53;;
11699;SDS011;5906;51.660;6.674;2022-12-05T00:32:36;47.40;;;22.03;;
11699;SDS011;5906;51.660;6.674;2022-12-05T00:35:23;44.23;;;22.00;;
11699;SDS011;5906;51.660;6.674;2022-12-05T00:38:10;43.53;;;22.40;;
11699;SDS011;5906;51.660;6.674;2022-12-05T00:41:04;45.57;;;22.90;;
11699;SDS011;5906;51.660;6.674;2022-12-05T00:43:52;45.77;;;20.93;;
11699;SDS011;5906;51.660;6.674;2022-12-05T00:46:40;46.97;;;23.47;;
11699;SDS011;5906;51.660;6.674;2022-12-05T00:49:28;42.50;;;22.60;;
11699;SDS011;5906;51.660;6.674;2022-12-05T00:52:15;45.23;;;23.90;;
11699;SDS011;5906;51.660;6.674;2022-12-05T00:55:03;50.77;;;23.53;;
11699;SDS011;5906;51.660;6.674;2022-12-05T00:57:50;48.03;;;24.80;;
11699;SDS011;5906;51.660;6.674;2022-12-05T01:00:37;45.30;;;24.50;;
11699;SDS011;5906;51.660;6.674;2022-12-05T01:03:24;53.00;;;25.53;;
11699;SDS011;5906;51.660;6.674;2022-12-05T01:06:12;46.60;;;23.90;;
11699;SDS011;5906;51.660;6.674;2022-12-05T01:09:01;41.73;;;23.20;;
11699;SDS011;5906;51.660;6.674;2022-12-05T01:11:50;45.50;;;23.83;;
11699;SDS011;5906;51.660;6.674;2022-12-05T01:14:37;49.47;;;23.90;;
11699;SDS011;5906;51.660;6.674;2022-12-05T01:17:25;46.53;;;23.73;;
11699;SDS011;5906;51.660;6.674;2022-12-05T01:20:12;45.20;;;24.23;;
11699;SDS011;5906;51.660;6.674;2022-12-05T01:22:59;49.90;;;24.40;;
11699;SDS011;5906;51.660;6.674;2022-12-05T01:25:47;48.97;;;25.20;;
11699;SDS011;5906;51.660;6.674;2022-12-05T01:28:37;50.03;;;24.37;;
11699;SDS011;5906;51.660;6.674;2022-12-05T01:31:28;42.40;;;21.93;;
11699;SDS011;5906;51.660;6.674;2022-12-05T01:34:17;48.57;;;25.80;;
11699;SDS011;5906;51.660;6.674;2022-12-05T01:37:05;49.97;;;26.00;;
11699;SDS011;5906;51.660;6.674;2022-12-05T01:39:52;45.73;;;22.80;;
11699;SDS011;5906;51.660;6.674;2022-12-05T01:42:40;45.77;;;24.67;;
11699;SDS011;5906;51.660;6.674;2022-12-05T01:45:32;47.17;;;23.10;;
11699;SDS011;5906;51.660;6.674;2022-12-05T01:48:26;52.43;;;23.83;;
11699;SDS011;5906;51.660;6.674;2022-12-05T01:51:18;46.40;;;23.60;;
11699;SDS011;5906;51.660;6.674;2022-12-05T01:54:05;54.63;;;24.47;;
11699;SDS011;5906;51.660;6.674;2022-12-05T01:56:56;55.47;;;24.57;;
11699;SDS011;5906;51.660;6.674;2022-12-05T01:59:47;60.13;;;25.40;;
11699;SDS011;5906;51.660;6.674;2022-12-05T02:02:36;53.43;;;26.20;;
11699;SDS011;5906;51.660;6.674;2022-12-05T02:05:28;46.87;;;25.77;;
11699;SDS011;5906;51.660;6.674;2022-12-05T02:08:17;58.77;;;25.60;;
11699;SDS011;5906;51.660;6.674;2022-12-05T02:11:05;48.87;;;22.17;;
11699;SDS011;5906;51.660;6.674;2022-12-05T02:14:13;45.77;;;23.53;;
11699;SDS011;5906;51.660;6.674;2022-12-05T02:23:35;47.77;;;26.57;;
11699;SDS011;5906;51.660;6.674;2022-12-05T02:36:16;48.50;;;23.67;;
11699;SDS011;5906;51.660;6.674;2022-12-05T02:39:15;45.80;;;23.83;;
11699;SDS011;5906;51.660;6.674;2022-12-05T02:42:44;51.03;;;23.20;;
11699;SDS011;5906;51.660;6.674;2022-12-05T02:45:30;57.00;;;26.00;;
11699;SDS011;5906;51.660;6.674;2022-12-05T02:48:21;47.33;;;22.97;;
11699;SDS011;5906;51.660;6.674;2022-12-05T02:51:12;45.77;;;23.90;;
11699;SDS011;5906;51.660;6.674;2022-12-05T02:54:03;55.47;;;26.00;;
11699;SDS011;5906;51.660;6.674;2022-12-05T02:56:53;49.53;;;24.23;;
11699;SDS011;5906;51.660;6.674;2022-12-05T02:59:42;49.97;;;26.33;;
11699;SDS011;5906;51.660;6.674;2022-12-05T03:02:30;50.33;;;24.50;;
11699;SDS011;5906;51.660;6.674;2022-12-05T03:05:27;43.23;;;23.10;;
11699;SDS011;5906;51.660;6.674;2022-12-05T03:08:36;47.53;;;23.80;;
11699;SDS011;5906;51.660;6.674;2022-12-05T03:11:30;46.97;;;22.77;;
11699;SDS011;5906;51.660;6.674;2022-12-05T03:14:45;45.80;;;24.23;;
11699;SDS011;5906;51.660;6.674;2022-12-05T03:20:58;45.13;;;22.73;;
11699;SDS011;5906;51.660;6.674;2022-12-05T03:23:51;45.40;;;23.00;;
11699;SDS011;5906;51.660;6.674;2022-12-05T03:26:45;46.50;;;23.50;;
11699;SDS011;5906;51.660;6.674;2022-12-05T03:30:06;43.20;;;22.43;;
11699;SDS011;5906;51.660;6.674;2022-12-05T03:36:01;45.73;;;23.13;;
11699;SDS011;5906;51.660;6.674;2022-12-05T03:39:08;52.40;;;25.10;;
11699;SDS011;5906;51.660;6.674;2022-12-05T03:42:13;43.30;;;22.53;;
11699;SDS011;5906;51.660;6.674;2022-12-05T03:45:10;50.33;;;23.63;;
11699;SDS011;5906;51.660;6.674;2022-12-05T03:48:13;43.97;;;22.57;;
11699;SDS011;5906;51.660;6.674;2022-12-05T03:51:06;52.73;;;23.00;;
11699;SDS011;5906;51.660;6.674;2022-12-05T03:53:57;44.27;;;25.30;;
11699;SDS011;5906;51.660;6.674;2022-12-05T03:56:50;48.30;;;22.93;;
11699;SDS011;5906;51.660;6.674;2022-12-05T04:02:42;43.90;;;21.20;;
11699;SDS011;5906;51.660;6.674;2022-12-05T04:05:44;47.40;;;23.50;;
11699;SDS011;5906;51.660;6.674;2022-12-05T04:08:42;48.70;;;21.03;;
11699;SDS011;5906;51.660;6.674;2022-12-05T04:11:39;43.67;;;22.90;;
11699;SDS011;5906;51.660;6.674;2022-12-05T04:14:34;41.37;;;23.90;;
11699;SDS011;5906;51.660;6.674;2022-12-05T04:17:47;44.40;;;21.30;;
11699;SDS011;5906;51.660;6.674;2022-12-05T04:20:42;40.07;;;22.10;;
11699;SDS011;5906;51.660;6.674;2022-12-05T04:23:49;41.37;;;21.00;;
11699;SDS011;5906;51.660;6.674;2022-12-05T04:30:18;43.27;;;22.30;;
11699;SDS011;5906;51.660;6.674;2022-12-05T04:33:19;36.40;;;20.07;;
11699;SDS011;5906;51.660;6.674;2022-12-05T04:36:11;39.47;;;21.13;;
11699;SDS011;5906;51.660;6.674;2022-12-05T04:39:02;37.10;;;20.07;;
11699;SDS011;5906;51.660;6.674;2022-12-05T04:42:04;39.73;;;20.90;;
11699;SDS011;5906;51.660;6.674;2022-12-05T04:44:57;42.60;;;20.80;;
11699;SDS011;5906;51.660;6.674;2022-12-05T04:47:49;38.70;;;21.87;;
11699;SDS011;5906;51.660;6.674;2022-12-05T04:50:44;38.10;;;20.57;;
11699;SDS011;5906;51.660;6.674;2022-12-05T04:53:33;38.20;;;20.70;;
11699;SDS011;5906;51.660;6.674;2022-12-05T04:56:23;44.00;;;22.00;;
11699;SDS011;5906;51.660;6.674;2022-12-05T04:59:15;36.27;;;18.63;;
11699;SDS011;5906;51.660;6.674;2022-12-05T05:02:05;39.90;;;20.20;;
11699;SDS011;5906;51.660;6.674;2022-12-05T05:04:53;42.33;;;21.60;;
11699;SDS011;5906;51.660;6.674;2022-12-05T05:07:44;38.33;;;20.53;;
11699;SDS011;5906;51.660;6.674;2022-12-05T05:10:40;37.43;;;19.50;;
11699;SDS011;5906;51.660;6.674;2022-12-05T05:13:36;40.43;;;20.97;;
11699;SDS011;5906;51.660;6.674;2022-12-05T05:16:27;41.27;;;20.30;;
11699;SDS011;5906;51.660;6.674;2022-12-05T05:19:17;46.07;;;20.50;;
11699;SDS011;5906;51.660;6.674;2022-12-05T05:22:04;40.40;;;19.70;;
11699;SDS011;5906;51.660;6.674;2022-12-05T05:24:51;37.20;;;19.73;;
11699;SDS011;5906;51.660;6.674;2022-12-05T05:27:38;34.73;;;17.07;;
11699;SDS011;5906;51.660;6.674;2022-12-05T05:30:25;36.53;;;21.70;;
11699;SDS011;5906;51.660;6.674;2022-12-05T05:33:12;33.37;;;18.47;;
11699;SDS011;5906;51.660;6.674;2022-12-05T05:36:03;38.97;;;19.50;;
11699;SDS011;5906;51.660;6.674;2022-12-05T05:38:52;39.33;;;20.60;;
11699;SDS011;5906;51.660;6.674;2022-12-05T05:41:42;30.17;;;16.87;;
11699;SDS011;5906;51.660;6.674;2022-12-05T05:44:29;33.70;;;19.80;;
11699;SDS011;5906;51.660;6.674;2022-12-05T05:47:16;34.73;;;21.27;;
11699;SDS011;5906;51.660;6.674;2022-12-05T05:50:04;32.43;;;19.33;;
11699;SDS011;5906;51.660;6.674;2022-12-05T05:52:51;38.87;;;21.10;;
11699;SDS011;5906;51.660;6.674;2022-12-05T05:55:39;31.60;;;18.40;;
11699;SDS011;5906;51.660;6.674;2022-12-05T05:58:26;32.40;;;18.90;;
11699;SDS011;5906;51.660;6.674;2022-12-05T06:01:17;38.30;;;18.30;;
11699;SDS011;5906;51.660;6.674;2022-12-05T06:04:07;34.13;;;18.63;;
11699;SDS011;5906;51.660;6.674;2022-12-05T06:06:55;30.93;;;18.93;;
11699;SDS011;5906;51.660;6.674;2022-12-05T06:09:42;37.57;;;19.90;;
11699;SDS011;5906;51.660;6.674;2022-12-05T06:12:29;28.57;;;17.87;;
11699;SDS011;5906;51.660;6.674;2022-12-05T06:15:16;30.80;;;20.00;;
11699;SDS011;5906;51.660;6.674;2022-12-05T06:18:03;36.30;;;21.23;;
11699;SDS011;5906;51.660;6.674;2022-12-05T06:20:53;35.73;;;19.10;;
11699;SDS011;5906;51.660;6.674;2022-12-05T06:23:42;42.90;;;20.30;;
11699;SDS011;5906;51.660;6.674;2022-12-05T06:26:29;38.03;;;19.13;;
11699;SDS011;5906;51.660;6.674;2022-12-05T06:29:16;31.73;;;18.70;;
11699;SDS011;5906;51.660;6.674;2022-12-05T06:32:10;26.53;;;18.07;;
11699;SDS011;5906;51.660;6.674;2022-12-05T06:34:58;31.10;;;17.57;;
11699;SDS011;5906;51.660;6.674;2022-12-05T06:37:45;29.37;;;18.00;;
11699;SDS011;5906;51.660;6.674;2022-12-05T06:40:32;28.77;;;17.50;;
11699;SDS011;5906;51.660;6.674;2022-12-05T06:43:20;33.27;;;18.10;;
11699;SDS011;5906;51.660;6.674;2022-12-05T06:46:08;30.67;;;17.73;;
11699;SDS011;5906;51.660;6.674;2022-12-05T06:48:57;33.20;;;18.87;;
11699;SDS011;5906;51.660;6.674;2022-12-05T06:51:45;30.23;;;18.00;;
11699;SDS011;5906;51.660;6.674;2022-12-05T06:54:32;31.00;;;17.87;;
11699;SDS011;5906;51.660;6.674;2022-12-05T06:57:22;29.93;;;17.33;;
11699;SDS011;5906;51.660;6.674;2022-12-05T07:00:09;30.37;;;15.80;;
11699;SDS011;5906;51.660;6.674;2022-12-05T07:03:15;21.90;;;15.00;;
11699;SDS011;5906;51.660;6.674;2022-12-05T07:06:03;27.43;;;17.33;;
11699;SDS011;5906;51.660;6.674;2022-12-05T07:08:51;25.73;;;15.60;;
11699;SDS011;5906;51.660;6.674;2022-12-05T07:11:38;27.50;;;17.17;;
11699;SDS011;5906;51.660;6.674;2022-12-05T07:14:25;29.30;;;15.20;;
11699;SDS011;5906;51.660;6.674;2022-12-05T07:17:36;26.30;;;14.73;;
11699;SDS011;5906;51.660;6.674;2022-12-05T07:20:24;22.53;;;14.50;;
11699;SDS011;5906;51.660;6.674;2022-12-05T07:23:23;25.57;;;14.93;;
11699;SDS011;5906;51.660;6.674;2022-12-05T07:26:12;23.77;;;15.30;;
11699;SDS011;5906;51.660;6.674;2022-12-05T07:29:01;29.10;;;16.07;;
11699;SDS011;5906;51.660;6.674;2022-12-05T07:31:48;22.93;;;15.07;;
11699;SDS011;5906;51.660;6.674;2022-12-05T07:34:35;25.07;;;15.30;;
11699;SDS011;5906;51.660;6.674;2022-12-05T07:37:24;24.70;;;17.50;;
11699;SDS011;5906;51.660;6.674;2022-12-05T07:40:11;25.53;;;16.17;;
11699;SDS011;5906;51.660;6.674;2022-12-05T07:42:58;28.20;;;16.83;;
11699;SDS011;5906;51.660;6.674;2022-12-05T07:45:46;23.40;;;15.20;;
11699;SDS011;5906;51.660;6.674;2022-12-05T07:48:33;27.47;;;15.87;;
11699;SDS011;5906;51.660;6.674;2022-12-05T07:51:20;27.77;;;15.50;;
11699;SDS011;5906;51.660;6.674;2022-12-05T07:54:07;29.63;;;16.80;;
11699;SDS011;5906;51.660;6.674;2022-12-05T07:56:54;26.20;;;15.63;;
11699;SDS011;5906;51.660;6.674;2022-12-05T07:59:41;25.17;;;14.77;;
11699;SDS011;5906;51.660;6.674;2022-12-05T08:02:28;27.77;;;15.53;;
11699;SDS011;5906;51.660;6.674;2022-12-05T08:05:16;25.97;;;13.13;;
11699;SDS011;5906;51.660;6.674;2022-12-05T08:08:03;21.23;;;14.00;;
11699;SDS011;5906;51.660;6.674;2022-12-05T08:10:50;22.43;;;14.20;;
11699;SDS011;5906;51.660;6.674;2022-12-05T08:13:37;26.50;;;14.20;;
11699;SDS011;5906;51.660;6.674;2022-12-05T08:16:25;25.80;;;15.63;;
11699;SDS011;5906;51.660;6.674;2022-12-05T08:19:14;32.30;;;17.00;;
11699;SDS011;5906;51.660;6.674;2022-12-05T08:22:02;27.37;;;16.13;;
11699;SDS011;5906;51.660;6.674;2022-12-05T08:24:50;25.90;;;15.40;;
11699;SDS011;5906;51.660;6.674;2022-12-05T08:27:41;25.57;;;14.43;;
11699;SDS011;5906;51.660;6.674;2022-12-05T08:30:29;27.23;;;16.20;;
11699;SDS011;5906;51.660;6.674;2022-12-05T08:33:15;28.80;;;15.77;;
11699;SDS011;5906;51.660;6.674;2022-12-05T08:36:03;31.33;;;17.57;;
11699;SDS011;5906;51.660;6.674;2022-12-05T08:38:56;33.30;;;16.20;;
11699;SDS011;5906;51.660;6.674;2022-12-05T08:41:44;34.03;;;15.50;;
11699;SDS011;5906;51.660;6.674;2022-12-05T08:44:32;26.33;;;15.57;;
11699;SDS011;5906;51.660;6.674;2022-12-05T08:47:19;30.83;;;15.17;;
11699;SDS011;5906;51.660;6.674;2022-12-05T08:50:06;23.43;;;15.33;;
11699;SDS011;5906;51.660;6.674;2022-12-05T08:52:54;26.23;;;13.73;;
11699;SDS011;5906;51.660;6.674;2022-12-05T08:55:41;21.50;;;14.60;;
11699;SDS011;5906;51.660;6.674;2022-12-05T08:58:28;20.67;;;13.37;;
11699;SDS011;5906;51.660;6.674;2022-12-05T09:01:16;24.73;;;15.63;;
11699;SDS011;5906;51.660;6.674;2022-12-05T09:04:05;20.37;;;14.27;;
11699;SDS011;5906;51.660;6.674;2022-12-05T09:06:52;18.93;;;13.73;;
11699;SDS011;5906;51.660;6.674;2022-12-05T09:09:39;20.13;;;14.63;;
11699;SDS011;5906;51.660;6.674;2022-12-05T09:12:26;25.17;;;16.10;;
11699;SDS011;5906;51.660;6.674;2022-12-05T09:15:14;29.43;;;17.17;;
11699;SDS011;5906;51.660;6.674;2022-12-05T09:18:01;22.93;;;13.53;;
11699;SDS011;5906;51.660;6.674;2022-12-05T09:20:48;23.67;;;14.07;;
11699;SDS011;5906;51.660;6.674;2022-12-05T09:23:35;24.50;;;14.67;;
11699;SDS011;5906;51.660;6.674;2022-12-05T09:26:23;22.30;;;14.43;;
11699;SDS011;5906;51.660;6.674;2022-12-05T09:29:11;18.30;;;13.87;;
11699;SDS011;5906;51.660;6.674;2022-12-05T09:32:03;20.60;;;14.40;;
11699;SDS011;5906;51.660;6.674;2022-12-05T09:34:50;22.30;;;13.50;;
11699;SDS011;5906;51.660;6.674;2022-12-05T09:37:37;24.13;;;14.67;;
11699;SDS011;5906;51.660;6.674;2022-12-05T09:40:25;19.20;;;13.83;;
11699;SDS011;5906;51.660;6.674;2022-12-05T09:43:20;23.70;;;15.50;;
11699;SDS011;5906;51.660;6.674;2022-12-05T09:49:37;21.70;;;15.73;;
11699;SDS011;5906;51.660;6.674;2022-12-05T09:52:34;23.77;;;15.70;;
11699;SDS011;5906;51.660;6.674;2022-12-05T09:56:03;24.70;;;17.53;;
11699;SDS011;5906;51.660;6.674;2022-12-05T09:58:51;33.07;;;19.37;;
11699;SDS011;5906;51.660;6.674;2022-12-05T10:01:45;23.63;;;16.77;;
11699;SDS011;5906;51.660;6.674;2022-12-05T10:07:34;20.57;;;16.00;;
11699;SDS011;5906;51.660;6.674;2022-12-05T10:17:29;21.53;;;13.50;;
11699;SDS011;5906;51.660;6.674;2022-12-05T10:20:21;18.37;;;13.77;;
11699;SDS011;5906;51.660;6.674;2022-12-05T10:23:47;18.97;;;14.17;;
11699;SDS011;5906;51.660;6.674;2022-12-05T10:26:45;22.20;;;15.20;;
11699;SDS011;5906;51.660;6.674;2022-12-05T10:32:36;21.10;;;15.17;;
11699;SDS011;5906;51.660;6.674;2022-12-05T10:35:38;23.13;;;16.30;;
11699;SDS011;5906;51.660;6.674;2022-12-05T10:38:27;22.97;;;16.60;;
11699;SDS011;5906;51.660;6.674;2022-12-05T10:41:16;26.40;;;17.00;;
11699;SDS011;5906;51.660;6.674;2022-12-05T10:44:03;17.97;;;13.00;;
11699;SDS011;5906;51.660;6.674;2022-12-05T10:46:51;18.73;;;14.40;;
11699;SDS011;5906;51.660;6.674;2022-12-05T10:49:38;20.70;;;14.50;;
11699;SDS011;5906;51.660;6.674;2022-12-05T10:52:26;24.60;;;14.70;;
11699;SDS011;5906;51.660;6.674;2022-12-05T10:55:15;22.63;;;14.00;;
11699;SDS011;5906;51.660;6.674;2022-12-05T10:58:16;22.20;;;13.83;;
11699;SDS011;5906;51.660;6.674;2022-12-05T11:01:12;18.07;;;12.67;;
11699;SDS011;5906;51.660;6.674;2022-12-05T11:04:19;17.50;;;13.80;;
11699;SDS011;5906;51.660;6.674;2022-12-05T11:07:09;20.17;;;13.90;;
11699;SDS011;5906;51.660;6.674;2022-12-05T11:10:20;16.70;;;11.70;;
11699;SDS011;5906;51.660;6.674;2022-12-05T11:13:25;15.00;;;11.60;;
11699;SDS011;5906;51.660;6.674;2022-12-05T11:16:19;16.37;;;11.27;;
11699;SDS011;5906;51.660;6.674;2022-12-05T11:19:17;18.73;;;12.07;;
11699;SDS011;5906;51.660;6.674;2022-12-05T11:22:17;20.20;;;14.57;;
11699;SDS011;5906;51.660;6.674;2022-12-05T11:25:22;21.80;;;14.17;;
11699;SDS011;5906;51.660;6.674;2022-12-05T11:31:05;21.20;;;14.70;;
11699;SDS011;5906;51.660;6.674;2022-12-05T11:34:15;20.33;;;13.73;;
11699;SDS011;5906;51.660;6.674;2022-12-05T11:37:16;20.37;;;15.37;;
11699;SDS011;5906;51.660;6.674;2022-12-05T11:43:54;18.93;;;13.77;;
11699;SDS011;5906;51.660;6.674;2022-12-05T11:47:06;54.47;;;27.37;;
11699;SDS011;5906;51.660;6.674;2022-12-05T11:56:47;16.90;;;13.77;;
11699;SDS011;5906;51.660;6.674;2022-12-05T12:03:02;16.17;;;12.20;;
11699;SDS011;5906;51.660;6.674;2022-12-05T12:18:22;15.70;;;11.30;;
11699;SDS011;5906;51.660;6.674;2022-12-05T12:25:04;15.30;;;11.20;;
11699;SDS011;5906;51.660;6.674;2022-12-05T12:34:43;15.40;;;11.20;;
11699;SDS011;5906;51.660;6.674;2022-12-05T12:37:50;16.60;;;11.77;;
11699;SDS011;5906;51.660;6.674;2022-12-05T12:41:10;16.63;;;13.50;;
11699;SDS011;5906;51.660;6.674;2022-12-05T12:51:07;12.60;;;10.57;;
11699;SDS011;5906;51.660;6.674;2022-12-05T12:54:07;11.67;;;10.47;;
11699;SDS011;5906;51.660;6.674;2022-12-05T13:00:58;15.43;;;11.77;;
11699;SDS011;5906;51.660;6.674;2022-12-05T13:03:53;15.40;;;11.83;;
11699;SDS011;5906;51.660;6.674;2022-12-05T13:10:13;20.73;;;14.10;;
11699;SDS011;5906;51.660;6.674;2022-12-05T13:13:25;18.87;;;13.70;;
11699;SDS011;5906;51.660;6.674;2022-12-05T13:16:32;17.33;;;12.40;;
11699;SDS011;5906;51.660;6.674;2022-12-05T13:19:38;15.57;;;11.67;;
11699;SDS011;5906;51.660;6.674;2022-12-05T13:22:29;13.03;;;10.80;;
11699;SDS011;5906;51.660;6.674;2022-12-05T13:25:18;12.97;;;10.67;;
11699;SDS011;5906;51.660;6.674;2022-12-05T13:28:29;14.93;;;10.80;;
11699;SDS011;5906;51.660;6.674;2022-12-05T13:31:18;13.63;;;11.33;;
11699;SDS011;5906;51.660;6.674;2022-12-05T13:37:30;14.07;;;10.40;;
11699;SDS011;5906;51.660;6.674;2022-12-05T13:40:36;11.77;;;9.13;;
11699;SDS011;5906;51.660;6.674;2022-12-05T13:43:54;12.10;;;10.80;;
11699;SDS011;5906;51.660;6.674;2022-12-05T13:46:52;12.57;;;9.13;;
11699;SDS011;5906;51.660;6.674;2022-12-05T13:49:41;11.73;;;10.40;;
11699;SDS011;5906;51.660;6.674;2022-12-05T13:52:48;18.37;;;11.80;;
11699;SDS011;5906;51.660;6.674;2022-12-05T13:55:39;11.97;;;10.70;;
11699;SDS011;5906;51.660;6.674;2022-12-05T13:58:46;12.43;;;10.40;;
11699;SDS011;5906;51.660;6.674;2022-12-05T14:07:35;11.27;;;9.60;;
11699;SDS011;5906;51.660;6.674;2022-12-05T14:19:36;13.20;;;9.93;;
11699;SDS011;5906;51.660;6.674;2022-12-05T14:25:59;10.90;;;9.40;;
11699;SDS011;5906;51.660;6.674;2022-12-05T14:32:19;12.73;;;10.10;;
11699;SDS011;5906;51.660;6.674;2022-12-05T14:38:01;11.80;;;9.20;;
11699;SDS011;5906;51.660;6.674;2022-12-05T14:40:51;11.40;;;9.97;;
11699;SDS011;5906;51.660;6.674;2022-12-05T14:49:29;10.83;;;9.77;;
11699;SDS011;5906;51.660;6.674;2022-12-05T14:52:34;13.10;;;9.80;;
11699;SDS011;5906;51.660;6.674;2022-12-05T14:55:24;12.47;;;10.00;;
11699;SDS011;5906;51.660;6.674;2022-12-05T14:58:15;14.70;;;10.37;;
11699;SDS011;5906;51.660;6.674;2022-12-05T15:01:13;13.53;;;11.63;;
11699;SDS011;5906;51.660;6.674;2022-12-05T15:06:56;14.80;;;11.77;;
11699;SDS011;5906;51.660;6.674;2022-12-05T15:10:02;13.10;;;11.00;;
11699;SDS011;5906;51.660;6.674;2022-12-05T15:12:56;13.07;;;10.97;;
11699;SDS011;5906;51.660;6.674;2022-12-05T15:18:48;12.13;;;10.23;;
11699;SDS011;5906;51.660;6.674;2022-12-05T15:21:38;17.03;;;9.57;;
11699;SDS011;5906;51.660;6.674;2022-12-05T15:24:37;12.27;;;10.53;;
11699;SDS011;5906;51.660;6.674;2022-12-05T15:35:16;11.17;;;9.57;;
11699;SDS011;5906;51.660;6.674;2022-12-05T15:38:15;10.87;;;9.50;;
11699;SDS011;5906;51.660;6.674;2022-12-05T15:41:16;11.10;;;8.57;;
11699;SDS011;5906;51.660;6.674;2022-12-05T15:44:04;10.97;;;9.80;;
11699;SDS011;5906;51.660;6.674;2022-12-05T15:46:51;12.83;;;9.10;;
11699;SDS011;5906;51.660;6.674;2022-12-05T15:49:40;10.27;;;8.43;;
11699;SDS011;5906;51.660;6.674;2022-12-05T15:52:35;12.23;;;8.70;;
11699;SDS011;5906;51.660;6.674;2022-12-05T15:55:35;10.00;;;9.00;;
11699;SDS011;5906;51.660;6.674;2022-12-05T16:01:27;12.00;;;10.50;;
11699;SDS011;5906;51.660;6.674;2022-12-05T16:04:32;14.20;;;12.70;;
11699;SDS011;5906;51.660;6.674;2022-12-05T16:07:27;9.80;;;8.80;;
11699;SDS011;5906;51.660;6.674;2022-12-05T16:10:16;12.50;;;11.00;;
11699;SDS011;5906;51.660;6.674;2022-12-05T16:13:14;11.90;;;10.70;;
11699;SDS011;5906;51.660;6.674;2022-12-05T16:16:05;11.57;;;10.37;;
11699;SDS011;5906;51.660;6.674;2022-12-05T16:18:54;10.00;;;8.87;;
11699;SDS011;5906;51.660;6.674;2022-12-05T16:21:58;11.47;;;10.27;;
11699;SDS011;5906;51.660;6.674;2022-12-05T16:24:52;13.03;;;10.47;;
11699;SDS011;5906;51.660;6.674;2022-12-05T16:27:41;10.63;;;9.50;;
11699;SDS011;5906;51.660;6.674;2022-12-05T16:30:29;12.07;;;9.70;;
11699;SDS011;5906;51.660;6.674;2022-12-05T16:33:17;13.10;;;9.50;;
11699;SDS011;5906;51.660;6.674;2022-12-05T16:36:10;14.13;;;9.77;;
11699;SDS011;5906;51.660;6.674;2022-12-05T16:39:02;10.73;;;9.17;;
11699;SDS011;5906;51.660;6.674;2022-12-05T16:42:15;10.70;;;9.30;;
11699;SDS011;5906;51.660;6.674;2022-12-05T16:45:12;12.83;;;10.43;;
11699;SDS011;5906;51.660;6.674;2022-12-05T16:48:26;12.50;;;9.73;;
11699;SDS011;5906;51.660;6.674;2022-12-05T16:51:17;15.37;;;10.83;;
11699;SDS011;5906;51.660;6.674;2022-12-05T16:54:07;12.07;;;10.00;;
11699;SDS011;5906;51.660;6.674;2022-12-05T16:56:55;11.67;;;10.43;;
11699;SDS011;5906;51.660;6.674;2022-12-05T16:59:43;12.37;;;9.60;;
11699;SDS011;5906;51.660;6.674;2022-12-05T17:02:33;11.77;;;10.47;;
11699;SDS011;5906;51.660;6.674;2022-12-05T17:05:21;13.13;;;11.20;;
11699;SDS011;5906;51.660;6.674;2022-12-05T17:08:08;13.77;;;10.87;;
11699;SDS011;5906;51.660;6.674;2022-12-05T17:10:55;13.60;;;11.20;;
11699;SDS011;5906;51.660;6.674;2022-12-05T17:13:43;15.17;;;11.90;;
11699;SDS011;5906;51.660;6.674;2022-12-05T17:16:33;14.27;;;11.77;;
11699;SDS011;5906;51.660;6.674;2022-12-05T17:19:21;14.97;;;12.03;;
11699;SDS011;5906;51.660;6.674;2022-12-05T17:22:09;15.30;;;11.73;;
11699;SDS011;5906;51.660;6.674;2022-12-05T17:24:57;15.63;;;11.57;;
11699;SDS011;5906;51.660;6.674;2022-12-05T17:27:46;12.60;;;10.90;;
11699;SDS011;5906;51.660;6.674;2022-12-05T17:30:33;10.87;;;9.70;;
11699;SDS011;5906;51.660;6.674;2022-12-05T17:33:21;13.80;;;12.13;;
11699;SDS011;5906;51.660;6.674;2022-12-05T17:36:08;12.60;;;10.60;;
11699;SDS011;5906;51.660;6.674;2022-12-05T17:46:40;16.17;;;11.20;;
11699;SDS011;5906;51.660;6.674;2022-12-05T17:49:28;15.20;;;11.70;;
11699;SDS011;5906;51.660;6.674;2022-12-05T18:18:59;15.83;;;11.93;;
11699;SDS011;5906;51.660;6.674;2022-12-05T18:21:47;16.47;;;11.97;;
11699;SDS011;5906;51.660;6.674;2022-12-05T18:27:16;17.97;;;13.40;;
11699;SDS011;5906;51.660;6.674;2022-12-05T18:30:05;13.60;;;12.17;;
11699;SDS011;5906;51.660;6.674;2022-12-05T18:32:52;17.93;;;12.90;;
11699;SDS011;5906;51.660;6.674;2022-12-05T18:35:40;22.30;;;16.83;;
11699;SDS011;5906;51.660;6.674;2022-12-05T18:41:13;14.57;;;12.53;;
11699;SDS011;5906;51.660;6.674;2022-12-05T18:44:00;19.70;;;14.77;;
11699;SDS011;5906;51.660;6.674;2022-12-05T18:46:47;20.37;;;14.60;;
11699;SDS011;5906;51.660;6.674;2022-12-05T18:49:34;16.70;;;13.40;;
11699;SDS011;5906;51.660;6.674;2022-12-05T18:52:22;19.40;;;13.83;;
11699;SDS011;5906;51.660;6.674;2022-12-05T18:55:09;17.70;;;14.67;;
11699;SDS011;5906;51.660;6.674;2022-12-05T18:58:03;20.73;;;13.60;;
11699;SDS011;5906;51.660;6.674;2022-12-05T19:00:50;15.83;;;13.57;;
11699;SDS011;5906;51.660;6.674;2022-12-05T19:03:38;14.97;;;12.57;;
11699;SDS011;5906;51.660;6.674;2022-12-05T19:06:26;19.20;;;13.87;;
11699;SDS011;5906;51.660;6.674;2022-12-05T19:09:19;16.90;;;12.83;;
11699;SDS011;5906;51.660;6.674;2022-12-05T19:12:08;21.80;;;15.30;;
11699;SDS011;5906;51.660;6.674;2022-12-05T19:14:55;15.77;;;12.50;;
11699;SDS011;5906;51.660;6.674;2022-12-05T19:17:42;18.30;;;14.20;;
11699;SDS011;5906;51.660;6.674;2022-12-05T19:20:29;14.80;;;12.23;;
11699;SDS011;5906;51.660;6.674;2022-12-05T19:23:17;15.37;;;12.80;;
11699;SDS011;5906;51.660;6.674;2022-12-05T19:26:05;15.90;;;13.87;;
11699;SDS011;5906;51.660;6.674;2022-12-05T19:28:55;15.00;;;11.73;;
11699;SDS011;5906;51.660;6.674;2022-12-05T19:31:48;16.50;;;12.60;;
11699;SDS011;5906;51.660;6.674;2022-12-05T19:34:36;18.27;;;13.57;;
11699;SDS011;5906;51.660;6.674;2022-12-05T19:37:23;19.03;;;13.23;;
11699;SDS011;5906;51.660;6.674;2022-12-05T19:40:10;18.03;;;13.13;;
11699;SDS011;5906;51.660;6.674;2022-12-05T19:42:58;16.10;;;13.70;;
11699;SDS011;5906;51.660;6.674;2022-12-05T19:45:45;19.60;;;13.80;;
11699;SDS011;5906;51.660;6.674;2022-12-05T19:48:34;19.83;;;14.30;;
11699;SDS011;5906;51.660;6.674;2022-12-05T19:51:22;18.00;;;13.63;;
11699;SDS011;5906;51.660;6.674;2022-12-05T19:54:11;17.60;;;13.17;;
11699;SDS011;5906;51.660;6.674;2022-12-05T19:56:59;16.30;;;11.93;;
11699;SDS011;5906;51.660;6.674;2022-12-05T19:59:46;18.80;;;14.30;;
11699;SDS011;5906;51.660;6.674;2022-12-05T20:02:33;14.97;;;12.77;;
11699;SDS011;5906;51.660;6.674;2022-12-05T20:05:25;18.77;;;14.53;;
11699;SDS011;5906;51.660;6.674;2022-12-05T20:08:15;18.67;;;14.60;;
11699;SDS011;5906;51.660;6.674;2022-12-05T20:11:06;21.80;;;14.63;;
11699;SDS011;5906;51.660;6.674;2022-12-05T20:13:56;22.93;;;15.10;;